sensor_id;sensor_type;location;lat;lon;timestamp;P1;durP1;ratioP1;P2;durP2;ratioP2
69369;SDS011;56530;42.640;23.372;2023-04-25T00:00:56;3.40;;;3.08;;
69369;SDS011;56530;42.640;23.372;2023-04-25T00:03:21;3.28;;;3.05;;
69369;SDS011;56530;42.640;23.372;2023-04-25T00:05:47;3.45;;;3.17;;
69369;SDS011;56530;42.640;23.372;2023-04-25T00:08:12;2.67;;;2.42;;
69369;SDS011;56530;42.640;23.372;2023-04-25T00:10:38;4.05;;;2.80;;
69369;SDS011;56530;42.640;23.372;2023-04-25T00:13:03;3.33;;;3.03;;
69369;SDS011;56530;42.640;23.372;2023-04-25T00:15:29;3.30;;;3.00;;
69369;SDS011;56530;42.640;23.372;2023-04-25T00:17:57;5.65;;;3.25;;
69369;SDS011;56530;42.640;23.372;2023-04-25T00:20:23;3.97;;;3.17;;
69369;SDS011;56530;42.640;23.372;2023-04-25T00:22:49;3.92;;;3.53;;
69369;SDS011;56530;42.640;23.372;2023-04-25T00:25:15;4.38;;;3.90;;
69369;SDS011;56530;42.640;23.372;2023-04-25T00:27:41;3.78;;;3.45;;
69369;SDS011;56530;42.640;23.372;2023-04-25T00:30:07;5.78;;;4.20;;
69369;SDS011;56530;42.640;23.372;2023-04-25T00:32:32;11.75;;;3.90;;
69369;SDS011;56530;42.640;23.372;2023-04-25T00:34:58;4.18;;;3.83;;
69369;SDS011;56530;42.640;23.372;2023-04-25T00:37:24;3.90;;;3.60;;
69369;SDS011;56530;42.640;23.372;2023-04-25T00:39:50;5.13;;;4.72;;
69369;SDS011;56530;42.640;23.372;2023-04-25T00:42:15;5.43;;;4.93;;
69369;SDS011;56530;42.640;23.372;2023-04-25T00:44:41;6.35;;;5.75;;
69369;SDS011;56530;42.640;23.372;2023-04-25T00:47:07;5.90;;;5.40;;
69369;SDS011;56530;42.640;23.372;2023-04-25T00:49:33;5.88;;;5.40;;
69369;SDS011;56530;42.640;23.372;2023-04-25T00:51:58;6.55;;;5.95;;
69369;SDS011;56530;42.640;23.372;2023-04-25T00:54:24;7.57;;;5.90;;
69369;SDS011;56530;42.640;23.372;2023-04-25T00:56:50;7.03;;;5.18;;
69369;SDS011;56530;42.640;23.372;2023-04-25T00:59:15;5.78;;;5.13;;
69369;SDS011;56530;42.640;23.372;2023-04-25T01:01:42;5.88;;;5.38;;
69369;SDS011;56530;42.640;23.372;2023-04-25T01:04:07;6.88;;;5.93;;
69369;SDS011;56530;42.640;23.372;2023-04-25T01:06:33;6.20;;;5.60;;
69369;SDS011;56530;42.640;23.372;2023-04-25T01:08:58;5.63;;;5.13;;
69369;SDS011;56530;42.640;23.372;2023-04-25T01:11:24;6.05;;;5.45;;
69369;SDS011;56530;42.640;23.372;2023-04-25T01:13:50;5.55;;;5.03;;
69369;SDS011;56530;42.640;23.372;2023-04-25T01:16:15;7.75;;;6.43;;
69369;SDS011;56530;42.640;23.372;2023-04-25T01:18:41;5.97;;;5.43;;
69369;SDS011;56530;42.640;23.372;2023-04-25T01:21:07;6.05;;;5.47;;
69369;SDS011;56530;42.640;23.372;2023-04-25T01:23:34;5.85;;;5.22;;
69369;SDS011;56530;42.640;23.372;2023-04-25T01:26:00;6.75;;;5.25;;
69369;SDS011;56530;42.640;23.372;2023-04-25T01:28:26;5.95;;;5.35;;
69369;SDS011;56530;42.640;23.372;2023-04-25T01:30:52;5.53;;;5.03;;
69369;SDS011;56530;42.640;23.372;2023-04-25T01:33:18;6.15;;;3.95;;
69369;SDS011;56530;42.640;23.372;2023-04-25T01:35:44;4.72;;;3.85;;
69369;SDS011;56530;42.640;23.372;2023-04-25T01:38:09;4.07;;;3.72;;
69369;SDS011;56530;42.640;23.372;2023-04-25T01:40:36;4.15;;;3.72;;
69369;SDS011;56530;42.640;23.372;2023-04-25T01:43:04;4.00;;;3.50;;
69369;SDS011;56530;42.640;23.372;2023-04-25T01:45:29;4.00;;;3.45;;
69369;SDS011;56530;42.640;23.372;2023-04-25T01:47:54;6.78;;;3.40;;
69369;SDS011;56530;42.640;23.372;2023-04-25T01:50:24;5.63;;;5.05;;
69369;SDS011;56530;42.640;23.372;2023-04-25T01:52:50;4.15;;;3.60;;
69369;SDS011;56530;42.640;23.372;2023-04-25T01:55:15;6.60;;;3.97;;
69369;SDS011;56530;42.640;23.372;2023-04-25T01:57:41;4.10;;;3.70;;
69369;SDS011;56530;42.640;23.372;2023-04-25T02:00:07;4.97;;;4.18;;
69369;SDS011;56530;42.640;23.372;2023-04-25T02:02:34;7.70;;;4.10;;
69369;SDS011;56530;42.640;23.372;2023-04-25T02:04:59;4.55;;;4.15;;
69369;SDS011;56530;42.640;23.372;2023-04-25T02:07:25;5.75;;;3.97;;
69369;SDS011;56530;42.640;23.372;2023-04-25T02:09:51;4.78;;;4.38;;
69369;SDS011;56530;42.640;23.372;2023-04-25T02:12:16;4.47;;;4.07;;
69369;SDS011;56530;42.640;23.372;2023-04-25T02:14:42;5.25;;;4.75;;
69369;SDS011;56530;42.640;23.372;2023-04-25T02:17:07;4.55;;;4.15;;
69369;SDS011;56530;42.640;23.372;2023-04-25T02:19:32;5.15;;;4.70;;
69369;SDS011;56530;42.640;23.372;2023-04-25T02:21:58;4.85;;;4.45;;
69369;SDS011;56530;42.640;23.372;2023-04-25T02:24:23;5.13;;;4.70;;
69369;SDS011;56530;42.640;23.372;2023-04-25T02:26:49;5.00;;;4.60;;
69369;SDS011;56530;42.640;23.372;2023-04-25T02:29:14;5.38;;;4.88;;
69369;SDS011;56530;42.640;23.372;2023-04-25T02:31:40;4.43;;;4.07;;
69369;SDS011;56530;42.640;23.372;2023-04-25T02:34:05;5.35;;;4.07;;
69369;SDS011;56530;42.640;23.372;2023-04-25T02:36:31;5.47;;;4.20;;
69369;SDS011;56530;42.640;23.372;2023-04-25T02:38:59;7.00;;;4.68;;
69369;SDS011;56530;42.640;23.372;2023-04-25T02:41:25;7.55;;;4.93;;
69369;SDS011;56530;42.640;23.372;2023-04-25T02:43:50;4.80;;;4.35;;
69369;SDS011;56530;42.640;23.372;2023-04-25T02:46:15;4.78;;;4.38;;
69369;SDS011;56530;42.640;23.372;2023-04-25T02:48:41;4.60;;;4.25;;
69369;SDS011;56530;42.640;23.372;2023-04-25T02:51:06;6.70;;;4.22;;
69369;SDS011;56530;42.640;23.372;2023-04-25T02:53:32;7.18;;;4.03;;
69369;SDS011;56530;42.640;23.372;2023-04-25T02:55:57;5.05;;;4.55;;
69369;SDS011;56530;42.640;23.372;2023-04-25T02:58:24;5.68;;;5.18;;
69369;SDS011;56530;42.640;23.372;2023-04-25T03:00:49;5.55;;;5.05;;
69369;SDS011;56530;42.640;23.372;2023-04-25T03:03:14;5.78;;;5.28;;
69369;SDS011;56530;42.640;23.372;2023-04-25T03:05:42;4.43;;;4.07;;
69369;SDS011;56530;42.640;23.372;2023-04-25T03:08:11;4.35;;;4.00;;
69369;SDS011;56530;42.640;23.372;2023-04-25T03:10:37;5.10;;;4.70;;
69369;SDS011;56530;42.640;23.372;2023-04-25T03:13:03;6.22;;;5.63;;
69369;SDS011;56530;42.640;23.372;2023-04-25T03:15:28;6.80;;;5.57;;
69369;SDS011;56530;42.640;23.372;2023-04-25T03:17:54;6.35;;;5.75;;
69369;SDS011;56530;42.640;23.372;2023-04-25T03:20:19;6.22;;;5.57;;
69369;SDS011;56530;42.640;23.372;2023-04-25T03:22:45;6.60;;;5.97;;
69369;SDS011;56530;42.640;23.372;2023-04-25T03:25:10;6.20;;;5.60;;
69369;SDS011;56530;42.640;23.372;2023-04-25T03:27:37;6.50;;;6.00;;
69369;SDS011;56530;42.640;23.372;2023-04-25T03:30:02;6.25;;;5.65;;
69369;SDS011;56530;42.640;23.372;2023-04-25T03:32:28;6.50;;;5.90;;
69369;SDS011;56530;42.640;23.372;2023-04-25T03:34:53;6.40;;;5.40;;
69369;SDS011;56530;42.640;23.372;2023-04-25T03:37:19;5.93;;;5.32;;
69369;SDS011;56530;42.640;23.372;2023-04-25T03:39:44;6.95;;;6.15;;
69369;SDS011;56530;42.640;23.372;2023-04-25T03:42:10;6.82;;;5.72;;
69369;SDS011;56530;42.640;23.372;2023-04-25T03:44:35;8.73;;;5.80;;
69369;SDS011;56530;42.640;23.372;2023-04-25T03:47:00;6.07;;;5.55;;
69369;SDS011;56530;42.640;23.372;2023-04-25T03:49:26;6.20;;;5.60;;
69369;SDS011;56530;42.640;23.372;2023-04-25T03:51:51;7.05;;;6.43;;
69369;SDS011;56530;42.640;23.372;2023-04-25T03:54:16;8.38;;;6.47;;
69369;SDS011;56530;42.640;23.372;2023-04-25T03:56:42;6.50;;;5.72;;
69369;SDS011;56530;42.640;23.372;2023-04-25T03:59:07;6.07;;;5.57;;
69369;SDS011;56530;42.640;23.372;2023-04-25T04:01:33;7.95;;;5.25;;
69369;SDS011;56530;42.640;23.372;2023-04-25T04:03:58;6.60;;;6.00;;
69369;SDS011;56530;42.640;23.372;2023-04-25T04:06:23;5.28;;;4.70;;
69369;SDS011;56530;42.640;23.372;2023-04-25T04:08:49;6.47;;;5.88;;
69369;SDS011;56530;42.640;23.372;2023-04-25T04:11:14;5.70;;;5.15;;
69369;SDS011;56530;42.640;23.372;2023-04-25T04:13:39;6.88;;;5.38;;
69369;SDS011;56530;42.640;23.372;2023-04-25T04:16:05;7.22;;;6.05;;
69369;SDS011;56530;42.640;23.372;2023-04-25T04:18:30;8.90;;;8.00;;
69369;SDS011;56530;42.640;23.372;2023-04-25T04:20:56;9.55;;;8.52;;
69369;SDS011;56530;42.640;23.372;2023-04-25T04:23:23;8.82;;;7.20;;
69369;SDS011;56530;42.640;23.372;2023-04-25T04:25:48;8.25;;;7.45;;
69369;SDS011;56530;42.640;23.372;2023-04-25T04:28:14;7.35;;;6.65;;
69369;SDS011;56530;42.640;23.372;2023-04-25T04:30:41;8.27;;;7.30;;
69369;SDS011;56530;42.640;23.372;2023-04-25T04:33:07;8.07;;;7.38;;
69369;SDS011;56530;42.640;23.372;2023-04-25T04:35:33;8.65;;;7.85;;
69369;SDS011;56530;42.640;23.372;2023-04-25T04:37:58;8.52;;;6.82;;
69369;SDS011;56530;42.640;23.372;2023-04-25T04:40:24;10.10;;;6.72;;
69369;SDS011;56530;42.640;23.372;2023-04-25T04:42:50;8.05;;;6.72;;
69369;SDS011;56530;42.640;23.372;2023-04-25T04:45:16;8.15;;;7.35;;
69369;SDS011;56530;42.640;23.372;2023-04-25T04:47:41;8.30;;;7.32;;
69369;SDS011;56530;42.640;23.372;2023-04-25T04:50:08;9.18;;;7.10;;
69369;SDS011;56530;42.640;23.372;2023-04-25T04:52:37;8.65;;;7.82;;
69369;SDS011;56530;42.640;23.372;2023-04-25T04:55:03;10.45;;;8.98;;
69369;SDS011;56530;42.640;23.372;2023-04-25T04:57:30;11.32;;;8.40;;
69369;SDS011;56530;42.640;23.372;2023-04-25T04:59:56;11.55;;;8.45;;
69369;SDS011;56530;42.640;23.372;2023-04-25T05:02:21;8.68;;;7.85;;
69369;SDS011;56530;42.640;23.372;2023-04-25T05:04:47;9.23;;;8.23;;
69369;SDS011;56530;42.640;23.372;2023-04-25T05:07:12;11.23;;;7.75;;
69369;SDS011;56530;42.640;23.372;2023-04-25T05:09:38;9.35;;;8.30;;
69369;SDS011;56530;42.640;23.372;2023-04-25T05:12:03;9.27;;;8.38;;
69369;SDS011;56530;42.640;23.372;2023-04-25T05:14:30;10.93;;;9.20;;
69369;SDS011;56530;42.640;23.372;2023-04-25T05:16:56;8.90;;;8.00;;
69369;SDS011;56530;42.640;23.372;2023-04-25T05:19:21;6.60;;;6.00;;
69369;SDS011;56530;42.640;23.372;2023-04-25T05:21:46;6.70;;;5.00;;
69369;SDS011;56530;42.640;23.372;2023-04-25T05:24:12;5.68;;;4.70;;
69369;SDS011;56530;42.640;23.372;2023-04-25T05:26:37;7.32;;;5.75;;
69369;SDS011;56530;42.640;23.372;2023-04-25T05:29:03;6.70;;;6.00;;
69369;SDS011;56530;42.640;23.372;2023-04-25T05:31:28;6.55;;;5.95;;
69369;SDS011;56530;42.640;23.372;2023-04-25T05:33:54;9.95;;;6.03;;
69369;SDS011;56530;42.640;23.372;2023-04-25T05:36:19;5.68;;;5.07;;
69369;SDS011;56530;42.640;23.372;2023-04-25T05:38:45;6.15;;;5.05;;
69369;SDS011;56530;42.640;23.372;2023-04-25T05:41:10;5.82;;;5.32;;
69369;SDS011;56530;42.640;23.372;2023-04-25T05:43:36;6.10;;;5.50;;
69369;SDS011;56530;42.640;23.372;2023-04-25T05:46:01;6.50;;;5.55;;
69369;SDS011;56530;42.640;23.372;2023-04-25T05:48:27;6.25;;;5.65;;
69369;SDS011;56530;42.640;23.372;2023-04-25T05:50:52;6.25;;;5.75;;
69369;SDS011;56530;42.640;23.372;2023-04-25T05:53:18;7.03;;;5.85;;
69369;SDS011;56530;42.640;23.372;2023-04-25T05:55:44;6.45;;;5.85;;
69369;SDS011;56530;42.640;23.372;2023-04-25T05:58:10;6.22;;;5.72;;
69369;SDS011;56530;42.640;23.372;2023-04-25T06:00:35;6.80;;;6.20;;
69369;SDS011;56530;42.640;23.372;2023-04-25T06:03:00;7.03;;;6.32;;
69369;SDS011;56530;42.640;23.372;2023-04-25T06:05:26;6.85;;;5.70;;
69369;SDS011;56530;42.640;23.372;2023-04-25T06:07:52;6.22;;;5.63;;
69369;SDS011;56530;42.640;23.372;2023-04-25T06:10:17;5.70;;;5.20;;
69369;SDS011;56530;42.640;23.372;2023-04-25T06:12:43;6.75;;;5.35;;
69369;SDS011;56530;42.640;23.372;2023-04-25T06:15:09;6.82;;;6.22;;
69369;SDS011;56530;42.640;23.372;2023-04-25T06:17:35;7.95;;;7.15;;
69369;SDS011;56530;42.640;23.372;2023-04-25T06:20:00;8.93;;;7.88;;
69369;SDS011;56530;42.640;23.372;2023-04-25T06:22:26;9.02;;;7.85;;
69369;SDS011;56530;42.640;23.372;2023-04-25T06:24:52;9.05;;;7.88;;
69369;SDS011;56530;42.640;23.372;2023-04-25T06:27:17;9.30;;;6.85;;
69369;SDS011;56530;42.640;23.372;2023-04-25T06:29:43;8.27;;;6.50;;
69369;SDS011;56530;42.640;23.372;2023-04-25T06:32:08;8.77;;;7.18;;
69369;SDS011;56530;42.640;23.372;2023-04-25T06:34:33;8.57;;;7.68;;
69369;SDS011;56530;42.640;23.372;2023-04-25T06:36:59;8.30;;;7.00;;
69369;SDS011;56530;42.640;23.372;2023-04-25T06:39:24;8.13;;;6.75;;
69369;SDS011;56530;42.640;23.372;2023-04-25T06:41:50;10.82;;;6.72;;
69369;SDS011;56530;42.640;23.372;2023-04-25T06:44:16;8.55;;;7.63;;
69369;SDS011;56530;42.640;23.372;2023-04-25T06:46:41;13.07;;;7.05;;
69369;SDS011;56530;42.640;23.372;2023-04-25T06:49:07;8.00;;;7.18;;
69369;SDS011;56530;42.640;23.372;2023-04-25T06:51:32;11.45;;;5.97;;
69369;SDS011;56530;42.640;23.372;2023-04-25T06:53:57;6.18;;;5.43;;
69369;SDS011;56530;42.640;23.372;2023-04-25T06:56:23;5.90;;;5.40;;
69369;SDS011;56530;42.640;23.372;2023-04-25T06:58:49;7.25;;;5.35;;
69369;SDS011;56530;42.640;23.372;2023-04-25T07:01:14;7.30;;;5.20;;
69369;SDS011;56530;42.640;23.372;2023-04-25T07:03:40;10.25;;;4.90;;
69369;SDS011;56530;42.640;23.372;2023-04-25T07:06:05;14.18;;;6.68;;
69369;SDS011;56530;42.640;23.372;2023-04-25T07:08:31;10.32;;;6.43;;
69369;SDS011;56530;42.640;23.372;2023-04-25T07:10:56;13.00;;;6.25;;
69369;SDS011;56530;42.640;23.372;2023-04-25T07:13:22;6.68;;;5.75;;
69369;SDS011;56530;42.640;23.372;2023-04-25T07:15:47;7.35;;;5.90;;
69369;SDS011;56530;42.640;23.372;2023-04-25T07:18:13;7.00;;;6.30;;
69369;SDS011;56530;42.640;23.372;2023-04-25T07:20:39;6.80;;;5.55;;
69369;SDS011;56530;42.640;23.372;2023-04-25T07:23:04;9.95;;;6.20;;
69369;SDS011;56530;42.640;23.372;2023-04-25T07:25:30;10.38;;;5.93;;
69369;SDS011;56530;42.640;23.372;2023-04-25T07:27:55;7.10;;;6.35;;
69369;SDS011;56530;42.640;23.372;2023-04-25T07:30:21;10.55;;;6.68;;
69369;SDS011;56530;42.640;23.372;2023-04-25T07:32:47;7.65;;;6.05;;
69369;SDS011;56530;42.640;23.372;2023-04-25T07:35:13;11.85;;;6.32;;
69369;SDS011;56530;42.640;23.372;2023-04-25T07:37:39;12.27;;;6.75;;
69369;SDS011;56530;42.640;23.372;2023-04-25T07:40:04;11.07;;;6.88;;
69369;SDS011;56530;42.640;23.372;2023-04-25T07:42:30;8.20;;;7.03;;
69369;SDS011;56530;42.640;23.372;2023-04-25T07:44:56;9.70;;;5.93;;
69369;SDS011;56530;42.640;23.372;2023-04-25T07:47:22;9.30;;;6.57;;
69369;SDS011;56530;42.640;23.372;2023-04-25T07:49:47;13.57;;;6.78;;
69369;SDS011;56530;42.640;23.372;2023-04-25T07:52:13;8.32;;;6.50;;
69369;SDS011;56530;42.640;23.372;2023-04-25T07:54:38;5.80;;;5.32;;
69369;SDS011;56530;42.640;23.372;2023-04-25T07:57:03;14.30;;;5.93;;
69369;SDS011;56530;42.640;23.372;2023-04-25T07:59:31;8.88;;;6.03;;
69369;SDS011;56530;42.640;23.372;2023-04-25T08:01:56;10.52;;;5.45;;
69369;SDS011;56530;42.640;23.372;2023-04-25T08:04:22;9.85;;;6.10;;
69369;SDS011;56530;42.640;23.372;2023-04-25T08:06:49;9.45;;;5.00;;
69369;SDS011;56530;42.640;23.372;2023-04-25T08:09:15;8.02;;;4.75;;
69369;SDS011;56530;42.640;23.372;2023-04-25T08:11:40;7.50;;;4.35;;
69369;SDS011;56530;42.640;23.372;2023-04-25T08:14:06;4.28;;;3.70;;
69369;SDS011;56530;42.640;23.372;2023-04-25T08:16:32;13.18;;;5.78;;
69369;SDS011;56530;42.640;23.372;2023-04-25T08:18:58;7.32;;;4.93;;
69369;SDS011;56530;42.640;23.372;2023-04-25T08:21:24;6.60;;;4.82;;
69369;SDS011;56530;42.640;23.372;2023-04-25T08:23:51;5.30;;;4.53;;
69369;SDS011;56530;42.640;23.372;2023-04-25T08:26:17;6.55;;;3.50;;
69369;SDS011;56530;42.640;23.372;2023-04-25T08:28:43;8.93;;;4.83;;
69369;SDS011;56530;42.640;23.372;2023-04-25T08:31:08;6.13;;;4.37;;
69369;SDS011;56530;42.640;23.372;2023-04-25T08:33:34;4.70;;;4.28;;
69369;SDS011;56530;42.640;23.372;2023-04-25T08:35:59;7.93;;;4.65;;
69369;SDS011;56530;42.640;23.372;2023-04-25T08:38:25;7.35;;;4.00;;
69369;SDS011;56530;42.640;23.372;2023-04-25T08:40:50;10.82;;;6.13;;
69369;SDS011;56530;42.640;23.372;2023-04-25T08:43:17;9.55;;;5.15;;
69369;SDS011;56530;42.640;23.372;2023-04-25T08:45:44;8.73;;;4.50;;
69369;SDS011;56530;42.640;23.372;2023-04-25T08:48:14;6.75;;;4.85;;
69369;SDS011;56530;42.640;23.372;2023-04-25T08:50:44;9.98;;;5.55;;
69369;SDS011;56530;42.640;23.372;2023-04-25T08:53:13;4.90;;;3.33;;
69369;SDS011;56530;42.640;23.372;2023-04-25T08:55:43;6.32;;;3.42;;
69369;SDS011;56530;42.640;23.372;2023-04-25T08:58:09;5.30;;;2.83;;
69369;SDS011;56530;42.640;23.372;2023-04-25T09:00:36;3.50;;;2.92;;
69369;SDS011;56530;42.640;23.372;2023-04-25T09:03:01;3.58;;;3.25;;
69369;SDS011;56530;42.640;23.372;2023-04-25T09:05:28;7.70;;;2.60;;
69369;SDS011;56530;42.640;23.372;2023-04-25T09:07:53;2.97;;;2.70;;
69369;SDS011;56530;42.640;23.372;2023-04-25T09:10:19;7.20;;;4.13;;
69369;SDS011;56530;42.640;23.372;2023-04-25T09:12:44;5.25;;;4.80;;
69369;SDS011;56530;42.640;23.372;2023-04-25T09:15:10;11.45;;;6.88;;
69369;SDS011;56530;42.640;23.372;2023-04-25T09:17:37;10.18;;;6.82;;
69369;SDS011;56530;42.640;23.372;2023-04-25T09:20:09;6.38;;;5.78;;
69369;SDS011;56530;42.640;23.372;2023-04-25T09:22:37;8.45;;;7.63;;
69369;SDS011;56530;42.640;23.372;2023-04-25T09:25:03;4.85;;;4.45;;
69369;SDS011;56530;42.640;23.372;2023-04-25T09:27:36;11.77;;;7.07;;
69369;SDS011;56530;42.640;23.372;2023-04-25T09:30:01;8.80;;;6.30;;
69369;SDS011;56530;42.640;23.372;2023-04-25T09:32:27;6.43;;;5.72;;
69369;SDS011;56530;42.640;23.372;2023-04-25T09:34:56;12.32;;;5.63;;
69369;SDS011;56530;42.640;23.372;2023-04-25T09:39:50;6.85;;;4.70;;
69369;SDS011;56530;42.640;23.372;2023-04-25T09:42:17;8.45;;;5.65;;
69369;SDS011;56530;42.640;23.372;2023-04-25T09:44:46;5.20;;;4.63;;
69369;SDS011;56530;42.640;23.372;2023-04-25T09:47:12;11.40;;;5.80;;
69369;SDS011;56530;42.640;23.372;2023-04-25T09:49:40;8.88;;;6.55;;
69369;SDS011;56530;42.640;23.372;2023-04-25T09:52:07;8.75;;;5.93;;
69369;SDS011;56530;42.640;23.372;2023-04-25T09:54:32;6.18;;;4.78;;
69369;SDS011;56530;42.640;23.372;2023-04-25T09:56:58;8.05;;;4.45;;
69369;SDS011;56530;42.640;23.372;2023-04-25T09:59:37;4.72;;;4.30;;
69369;SDS011;56530;42.640;23.372;2023-04-25T10:02:04;8.18;;;4.53;;
69369;SDS011;56530;42.640;23.372;2023-04-25T10:04:31;5.78;;;4.72;;
69369;SDS011;56530;42.640;23.372;2023-04-25T10:06:59;6.88;;;3.97;;
69369;SDS011;56530;42.640;23.372;2023-04-25T10:09:26;4.07;;;3.35;;
69369;SDS011;56530;42.640;23.372;2023-04-25T10:11:56;4.82;;;4.38;;
69369;SDS011;56530;42.640;23.372;2023-04-25T10:14:23;5.65;;;3.10;;
69369;SDS011;56530;42.640;23.372;2023-04-25T10:16:49;6.13;;;3.40;;
69369;SDS011;56530;42.640;23.372;2023-04-25T10:19:18;6.82;;;4.60;;
69369;SDS011;56530;42.640;23.372;2023-04-25T10:22:04;6.50;;;5.15;;
69369;SDS011;56530;42.640;23.372;2023-04-25T10:24:32;8.68;;;5.03;;
69369;SDS011;56530;42.640;23.372;2023-04-25T10:26:59;7.68;;;3.95;;
69369;SDS011;56530;42.640;23.372;2023-04-25T10:29:27;5.68;;;2.40;;
69369;SDS011;56530;42.640;23.372;2023-04-25T10:31:52;4.40;;;2.10;;
69369;SDS011;56530;42.640;23.372;2023-04-25T10:34:18;8.65;;;1.90;;
69369;SDS011;56530;42.640;23.372;2023-04-25T10:36:51;2.33;;;1.45;;
69369;SDS011;56530;42.640;23.372;2023-04-25T10:39:23;1.73;;;1.60;;
69369;SDS011;56530;42.640;23.372;2023-04-25T10:41:56;4.22;;;1.48;;
69369;SDS011;56530;42.640;23.372;2023-04-25T10:44:25;1.30;;;1.20;;
69369;SDS011;56530;42.640;23.372;2023-04-25T10:46:51;2.25;;;1.65;;
69369;SDS011;56530;42.640;23.372;2023-04-25T10:49:30;8.07;;;3.97;;
69369;SDS011;56530;42.640;23.372;2023-04-25T10:54:55;6.35;;;1.73;;
69369;SDS011;56530;42.640;23.372;2023-04-25T11:03:09;11.25;;;3.40;;
69369;SDS011;56530;42.640;23.372;2023-04-25T11:05:34;2.95;;;2.30;;
69369;SDS011;56530;42.640;23.372;2023-04-25T11:08:01;1.60;;;1.50;;
69369;SDS011;56530;42.640;23.372;2023-04-25T11:10:29;3.03;;;2.47;;
69369;SDS011;56530;42.640;23.372;2023-04-25T11:12:55;2.58;;;1.95;;
69369;SDS011;56530;42.640;23.372;2023-04-25T11:15:21;4.10;;;1.90;;
69369;SDS011;56530;42.640;23.372;2023-04-25T11:17:46;0.95;;;0.95;;
69369;SDS011;56530;42.640;23.372;2023-04-25T11:20:12;0.90;;;0.90;;
69369;SDS011;56530;42.640;23.372;2023-04-25T11:22:39;3.53;;;2.00;;
69369;SDS011;56530;42.640;23.372;2023-04-25T11:25:06;3.45;;;1.65;;
69369;SDS011;56530;42.640;23.372;2023-04-25T11:27:33;3.67;;;1.75;;
69369;SDS011;56530;42.640;23.372;2023-04-25T11:29:58;4.25;;;1.83;;
69369;SDS011;56530;42.640;23.372;2023-04-25T11:32:24;4.28;;;2.58;;
69369;SDS011;56530;42.640;23.372;2023-04-25T11:34:49;1.70;;;1.60;;
69369;SDS011;56530;42.640;23.372;2023-04-25T11:37:15;2.08;;;1.73;;
69369;SDS011;56530;42.640;23.372;2023-04-25T11:39:44;3.63;;;1.70;;
69369;SDS011;56530;42.640;23.372;2023-04-25T11:42:11;3.60;;;1.42;;
69369;SDS011;56530;42.640;23.372;2023-04-25T11:44:37;5.82;;;2.05;;
69369;SDS011;56530;42.640;23.372;2023-04-25T11:47:03;4.95;;;2.83;;
69369;SDS011;56530;42.640;23.372;2023-04-25T11:49:32;4.32;;;2.40;;
69369;SDS011;56530;42.640;23.372;2023-04-25T11:51:58;13.90;;;2.63;;
69369;SDS011;56530;42.640;23.372;2023-04-25T11:54:23;3.65;;;2.58;;
69369;SDS011;56530;42.640;23.372;2023-04-25T11:56:48;2.70;;;2.50;;
69369;SDS011;56530;42.640;23.372;2023-04-25T11:59:14;5.60;;;2.35;;
69369;SDS011;56530;42.640;23.372;2023-04-25T12:01:46;2.45;;;1.85;;
69369;SDS011;56530;42.640;23.372;2023-04-25T12:04:14;3.03;;;1.08;;
69369;SDS011;56530;42.640;23.372;2023-04-25T12:06:41;6.75;;;1.60;;
69369;SDS011;56530;42.640;23.372;2023-04-25T12:09:08;1.33;;;1.23;;
69369;SDS011;56530;42.640;23.372;2023-04-25T12:11:42;1.20;;;1.17;;
69369;SDS011;56530;42.640;23.372;2023-04-25T12:14:08;1.80;;;1.30;;
69369;SDS011;56530;42.640;23.372;2023-04-25T12:16:45;1.13;;;1.02;;
69369;SDS011;56530;42.640;23.372;2023-04-25T12:19:14;3.30;;;1.10;;
69369;SDS011;56530;42.640;23.372;2023-04-25T12:21:40;1.33;;;1.23;;
69369;SDS011;56530;42.640;23.372;2023-04-25T12:27:02;1.48;;;1.30;;
69369;SDS011;56530;42.640;23.372;2023-04-25T12:29:29;2.45;;;1.30;;
69369;SDS011;56530;42.640;23.372;2023-04-25T12:31:56;1.35;;;1.10;;
69369;SDS011;56530;42.640;23.372;2023-04-25T12:34:22;3.03;;;1.27;;
69369;SDS011;56530;42.640;23.372;2023-04-25T12:36:49;4.03;;;1.77;;
69369;SDS011;56530;42.640;23.372;2023-04-25T12:39:15;3.05;;;1.40;;
69369;SDS011;56530;42.640;23.372;2023-04-25T12:41:48;2.47;;;1.20;;
69369;SDS011;56530;42.640;23.372;2023-04-25T12:44:19;2.03;;;1.40;;
69369;SDS011;56530;42.640;23.372;2023-04-25T12:46:45;1.27;;;1.20;;
69369;SDS011;56530;42.640;23.372;2023-04-25T12:49:10;1.60;;;1.25;;
69369;SDS011;56530;42.640;23.372;2023-04-25T12:51:36;2.05;;;1.20;;
69369;SDS011;56530;42.640;23.372;2023-04-25T12:54:03;2.50;;;1.38;;
69369;SDS011;56530;42.640;23.372;2023-04-25T12:56:29;5.05;;;1.85;;
69369;SDS011;56530;42.640;23.372;2023-04-25T12:58:55;4.85;;;1.30;;
69369;SDS011;56530;42.640;23.372;2023-04-25T13:01:21;2.00;;;1.17;;
69369;SDS011;56530;42.640;23.372;2023-04-25T13:03:47;2.65;;;1.23;;
69369;SDS011;56530;42.640;23.372;2023-04-25T13:06:13;5.10;;;1.50;;
69369;SDS011;56530;42.640;23.372;2023-04-25T13:08:39;5.70;;;2.35;;
69369;SDS011;56530;42.640;23.372;2023-04-25T13:11:04;2.63;;;1.52;;
69369;SDS011;56530;42.640;23.372;2023-04-25T13:13:30;2.47;;;2.28;;
69369;SDS011;56530;42.640;23.372;2023-04-25T13:15:56;3.47;;;1.38;;
69369;SDS011;56530;42.640;23.372;2023-04-25T13:18:22;1.77;;;1.67;;
69369;SDS011;56530;42.640;23.372;2023-04-25T13:20:51;2.65;;;1.58;;
69369;SDS011;56530;42.640;23.372;2023-04-25T13:23:17;1.95;;;1.80;;
69369;SDS011;56530;42.640;23.372;2023-04-25T13:25:42;2.22;;;1.70;;
69369;SDS011;56530;42.640;23.372;2023-04-25T13:28:08;1.77;;;1.20;;
69369;SDS011;56530;42.640;23.372;2023-04-25T13:30:33;1.48;;;1.38;;
69369;SDS011;56530;42.640;23.372;2023-04-25T13:32:58;2.80;;;1.48;;
69369;SDS011;56530;42.640;23.372;2023-04-25T13:35:28;2.60;;;1.73;;
69369;SDS011;56530;42.640;23.372;2023-04-25T13:37:54;1.85;;;1.75;;
69369;SDS011;56530;42.640;23.372;2023-04-25T13:40:19;4.53;;;1.63;;
69369;SDS011;56530;42.640;23.372;2023-04-25T13:42:45;2.90;;;1.70;;
69369;SDS011;56530;42.640;23.372;2023-04-25T13:45:10;3.45;;;1.73;;
69369;SDS011;56530;42.640;23.372;2023-04-25T13:47:36;2.78;;;1.88;;
69369;SDS011;56530;42.640;23.372;2023-04-25T13:50:01;1.75;;;1.63;;
69369;SDS011;56530;42.640;23.372;2023-04-25T13:52:28;1.48;;;1.38;;
69369;SDS011;56530;42.640;23.372;2023-04-25T13:54:54;3.25;;;2.00;;
69369;SDS011;56530;42.640;23.372;2023-04-25T13:57:19;2.47;;;2.20;;
69369;SDS011;56530;42.640;23.372;2023-04-25T13:59:45;2.75;;;2.20;;
69369;SDS011;56530;42.640;23.372;2023-04-25T14:02:11;5.07;;;2.03;;
69369;SDS011;56530;42.640;23.372;2023-04-25T14:04:37;2.05;;;1.20;;
69369;SDS011;56530;42.640;23.372;2023-04-25T14:07:02;1.10;;;1.10;;
69369;SDS011;56530;42.640;23.372;2023-04-25T14:09:28;2.10;;;1.45;;
69369;SDS011;56530;42.640;23.372;2023-04-25T14:11:54;1.40;;;1.30;;
69369;SDS011;56530;42.640;23.372;2023-04-25T14:14:20;1.50;;;1.40;;
69369;SDS011;56530;42.640;23.372;2023-04-25T14:16:47;1.90;;;1.67;;
69369;SDS011;56530;42.640;23.372;2023-04-25T14:19:16;1.60;;;1.50;;
69369;SDS011;56530;42.640;23.372;2023-04-25T14:21:42;1.63;;;1.52;;
69369;SDS011;56530;42.640;23.372;2023-04-25T14:24:08;1.95;;;1.13;;
69369;SDS011;56530;42.640;23.372;2023-04-25T14:26:34;1.05;;;1.00;;
69369;SDS011;56530;42.640;23.372;2023-04-25T14:29:01;1.10;;;1.10;;
69369;SDS011;56530;42.640;23.372;2023-04-25T14:31:26;1.13;;;1.13;;
69369;SDS011;56530;42.640;23.372;2023-04-25T14:33:52;1.05;;;1.05;;
69369;SDS011;56530;42.640;23.372;2023-04-25T14:36:18;1.60;;;1.50;;
69369;SDS011;56530;42.640;23.372;2023-04-25T14:38:43;1.30;;;1.10;;
69369;SDS011;56530;42.640;23.372;2023-04-25T14:41:09;1.45;;;1.27;;